Time;durP1;ratioP1;P1;durP2;ratioP2;P2;SDS_P1;SDS_P2;PMS_P1;PMS_P2;Temp;Humidity;BMP_temperature;BMP_pressure;BME280_temperature;BME280_humidity;BME280_pressure;Samples;Min_cycle;Max_cycle;Signal;HPM_P1;HPM_P2
2023/04/27 00:01:50;;;;;;;2.77;2.57;;;5.70;77.90;;;;;;5052459;28;20464;-56
2023/04/27 00:04:19;;;;;;;7.50;2.87;;;5.70;88.90;;;;;;5053581;28;20499;-55
2023/04/27 00:06:46;;;;;;;10.23;2.30;;;5.70;79.50;;;;;;5056259;28;20488;-56
2023/04/27 00:09:12;;;;;;;4.50;2.73;;;5.70;75.20;;;;;;5053101;28;20558;-56
2023/04/27 00:11:39;;;;;;;4.97;2.70;;;5.60;80.60;;;;;;5051247;28;20542;-56
2023/04/27 00:14:05;;;;;;;3.30;2.30;;;5.70;78.10;;;;;;5051912;28;20457;-56
2023/04/27 00:16:32;;;;;;;4.30;2.97;;;5.70;75.60;;;;;;5051106;28;20489;-56
2023/04/27 00:18:59;;;;;;;4.47;2.63;;;5.60;81.50;;;;;;5049739;28;20488;-55
2023/04/27 00:21:27;;;;;;;10.90;3.17;;;5.60;80.70;;;;;;5051560;28;21040;-55
2023/04/27 00:23:54;;;;;;;3.40;2.33;;;5.60;80.20;;;;;;5050966;28;20526;-56
2023/04/27 00:26:21;;;;;;;5.67;2.50;;;5.60;78.20;;;;;;5049724;28;21042;-56
2023/04/27 00:28:48;;;;;;;4.87;3.07;;;5.60;75.20;;;;;;5050876;28;20468;-56
2023/04/27 00:31:14;;;;;;;5.10;2.80;;;5.70;66.90;;;;;;5054281;28;20479;-55
2023/04/27 00:33:41;;;;;;;2.97;2.57;;;5.60;69.20;;;;;;5049614;28;20461;-55
2023/04/27 00:36:08;;;;;;;11.63;3.03;;;5.60;69.40;;;;;;5051645;28;20484;-55
2023/04/27 00:38:36;;;;;;;6.67;2.50;;;5.50;64.90;;;;;;5057399;28;20555;-56
2023/04/27 00:41:04;;;;;;;2.43;2.23;;;5.50;56.20;;;;;;5051312;28;20511;-56
2023/04/27 00:43:31;;;;;;;8.93;3.27;;;5.50;62.50;;;;;;5050864;28;20497;-55
2023/04/27 00:45:59;;;;;;;2.50;2.30;;;5.50;60.40;;;;;;5050331;28;20477;-56
2023/04/27 00:48:26;;;;;;;3.67;2.50;;;5.40;61.80;;;;;;5050993;28;20978;-55
2023/04/27 00:50:52;;;;;;;4.63;2.23;;;5.40;59.10;;;;;;5043735;28;20990;-55
2023/04/27 00:53:20;;;;;;;6.30;3.40;;;5.40;59.90;;;;;;5049448;28;20952;-55
2023/04/27 00:55:48;;;;;;;4.60;3.10;;;5.40;57.80;;;;;;5051558;28;20461;-55
2023/04/27 00:58:15;;;;;;;4.10;2.40;;;5.40;58.30;;;;;;5050605;28;20491;-55
2023/04/27 01:00:42;;;;;;;8.33;3.20;;;5.40;61.20;;;;;;5046056;28;20487;-55
2023/04/27 01:03:09;;;;;;;7.23;3.10;;;5.40;50.00;;;;;;5044752;28;20467;-56
2023/04/27 01:05:36;;;;;;;4.17;2.43;;;5.40;53.50;;;;;;5045818;28;20582;-55
2023/04/27 01:08:03;;;;;;;6.00;2.73;;;5.40;59.60;;;;;;5051417;28;20910;-56
2023/04/27 01:10:30;;;;;;;5.40;3.10;;;5.40;60.10;;;;;;5044858;28;20583;-54
2023/04/27 01:12:58;;;;;;;7.83;3.23;;;5.40;54.20;;;;;;5049034;28;20488;-58
2023/04/27 01:15:24;;;;;;;2.90;2.17;;;5.40;63.10;;;;;;5048253;28;21004;-56
2023/04/27 01:17:57;;;;;;;5.03;2.90;;;5.40;60.80;;;;;;5049747;28;20917;-56
2023/04/27 01:20:24;;;;;;;4.03;2.20;;;5.40;83.60;;;;;;5048901;28;20521;-55
2023/04/27 01:22:51;;;;;;;3.23;2.00;;;5.40;75.90;;;;;;5048982;28;20506;-54
2023/04/27 01:25:19;;;;;;;5.13;2.70;;;5.40;88.40;;;;;;5049568;28;20514;-55
2023/04/27 01:27:45;;;;;;;2.77;2.10;;;5.40;78.70;;;;;;5051350;28;20480;-55
2023/04/27 01:30:12;;;;;;;5.53;2.60;;;5.40;81.80;;;;;;5046835;28;20525;-55
2023/04/27 01:32:39;;;;;;;3.37;2.60;;;5.40;83.50;;;;;;5044597;28;20896;-55
2023/04/27 01:35:06;;;;;;;4.73;2.10;;;5.40;94.40;;;;;;5049442;28;20461;-55
2023/04/27 01:37:33;;;;;;;5.97;2.50;;;5.40;89.30;;;;;;5046471;28;21001;-55
2023/04/27 01:39:59;;;;;;;3.73;2.17;;;5.40;80.10;;;;;;5046856;28;20543;-56
2023/04/27 01:42:27;;;;;;;3.80;2.47;;;5.40;83.00;;;;;;5053610;28;20503;-55
2023/04/27 01:44:54;;;;;;;7.87;2.97;;;5.40;86.50;;;;;;5052379;28;20497;-54
2023/04/27 01:47:20;;;;;;;4.70;2.23;;;5.40;87.40;;;;;;5052651;28;20483;-55
2023/04/27 01:49:47;;;;;;;5.90;2.67;;;5.40;77.40;;;;;;5051901;28;20554;-57
2023/04/27 01:52:13;;;;;;;3.10;2.30;;;5.40;75.80;;;;;;5052658;28;20465;-56
2023/04/27 01:54:40;;;;;;;8.07;2.50;;;5.40;80.90;;;;;;5048090;28;20578;-56
2023/04/27 01:57:07;;;;;;;5.80;2.47;;;5.40;73.80;;;;;;5054199;28;20496;-55
2023/04/27 01:59:34;;;;;;;9.10;2.27;;;5.50;58.60;;;;;;5051978;28;20489;-56
2023/04/27 02:02:01;;;;;;;6.53;1.90;;;5.50;61.40;;;;;;5056556;28;20974;-56
2023/04/27 02:04:28;;;;;;;6.00;3.80;;;5.40;64.40;;;;;;5053264;28;20549;-56
2023/04/27 02:06:54;;;;;;;6.97;2.70;;;5.40;63.50;;;;;;5052886;28;20541;-56
2023/04/27 02:09:21;;;;;;;3.00;2.10;;;5.40;69.60;;;;;;5049716;28;20466;-55
2023/04/27 02:11:47;;;;;;;6.73;3.33;;;5.40;68.10;;;;;;5051192;28;20529;-56
2023/04/27 02:14:14;;;;;;;6.07;2.50;;;5.40;63.60;;;;;;5054203;28;20492;-56
2023/04/27 02:16:42;;;;;;;3.57;2.60;;;5.30;63.90;;;;;;5055129;28;20878;-56
2023/04/27 02:19:08;;;;;;;11.73;2.53;;;5.30;65.80;;;;;;5054523;28;20489;-56
2023/04/27 02:21:35;;;;;;;5.83;2.67;;;5.30;56.00;;;;;;5052226;28;20929;-55
2023/04/27 02:24:02;;;;;;;7.47;2.83;;;5.30;59.40;;;;;;5056191;28;20966;-55
2023/04/27 02:26:29;;;;;;;4.10;2.40;;;5.30;62.00;;;;;;5055958;28;20488;-56
2023/04/27 02:28:56;;;;;;;7.07;2.10;;;5.30;53.10;;;;;;5056542;28;20894;-55
2023/04/27 02:31:23;;;;;;;6.03;2.57;;;5.30;56.30;;;;;;5058739;28;20909;-55
2023/04/27 02:33:51;;;;;;;3.47;2.60;;;5.20;59.90;;;;;;5059817;28;20468;-54
2023/04/27 02:36:17;;;;;;;4.27;2.00;;;5.20;62.60;;;;;;5050049;28;20461;-56
2023/04/27 02:38:44;;;;;;;3.17;2.03;;;5.20;59.40;;;;;;5054452;28;20544;-55
2023/04/27 02:41:10;;;;;;;6.30;2.40;;;5.20;55.00;;;;;;5052664;28;20488;-55
2023/04/27 02:43:37;;;;;;;6.93;2.60;;;5.20;50.50;;;;;;5049597;28;20486;-55
2023/04/27 02:46:04;;;;;;;4.10;2.40;;;5.20;51.10;;;;;;5053417;28;20511;-55
2023/04/27 02:48:31;;;;;;;3.30;2.17;;;5.20;50.70;;;;;;5053676;28;20522;-55
2023/04/27 02:50:59;;;;;;;6.00;2.53;;;5.20;57.20;;;;;;5053477;28;20492;-52
2023/04/27 02:53:26;;;;;;;8.80;3.10;;;5.10;66.80;;;;;;5053520;28;20510;-53
2023/04/27 02:55:52;;;;;;;6.30;2.40;;;5.20;59.70;;;;;;5053884;28;20480;-53
2023/04/27 02:58:19;;;;;;;6.00;2.70;;;5.10;68.70;;;;;;5052781;28;20552;-52
2023/04/27 03:00:45;;;;;;;8.17;2.63;;;5.10;65.70;;;;;;5052320;28;20513;-53
2023/04/27 03:03:12;;;;;;;4.40;2.33;;;5.10;66.50;;;;;;5053279;28;20977;-52
2023/04/27 03:05:38;;;;;;;4.67;2.73;;;5.10;72.30;;;;;;5049598;28;20984;-52
2023/04/27 03:08:06;;;;;;;10.27;2.90;;;5.10;70.20;;;;;;5054053;28;20573;-52
2023/04/27 03:10:33;;;;;;;14.80;2.40;;;5.10;69.20;;;;;;5054253;28;20484;-52
2023/04/27 03:12:59;;;;;;;3.63;2.60;;;5.10;70.90;;;;;;5053546;28;20523;-52
2023/04/27 03:15:26;;;;;;;5.53;2.30;;;5.10;71.90;;;;;;5052839;28;20465;-52
2023/04/27 03:17:53;;;;;;;3.87;2.87;;;5.10;67.50;;;;;;5052997;28;20548;-52
2023/04/27 03:20:19;;;;;;;4.57;2.30;;;5.10;70.60;;;;;;5049563;28;20516;-53
2023/04/27 03:22:46;;;;;;;6.93;3.27;;;5.00;72.70;;;;;;5049114;28;20457;-52
2023/04/27 03:25:14;;;;;;;5.57;2.50;;;5.00;69.70;;;;;;5047926;28;21014;-53
2023/04/27 03:27:42;;;;;;;7.50;2.50;;;5.00;71.30;;;;;;5052791;28;20537;-53
2023/04/27 03:30:10;;;;;;;6.10;2.83;;;4.90;70.40;;;;;;5052303;28;20534;-55
2023/04/27 03:32:36;;;;;;;9.17;2.53;;;4.90;68.00;;;;;;5052246;28;20483;-53
2023/04/27 03:35:04;;;;;;;6.97;2.30;;;4.90;68.80;;;;;;5051379;28;20490;-52
2023/04/27 03:37:31;;;;;;;8.63;3.40;;;5.00;71.20;;;;;;5053122;28;21141;-53
2023/04/27 03:39:58;;;;;;;14.17;3.30;;;5.00;79.00;;;;;;5052773;28;20480;-53
2023/04/27 03:42:25;;;;;;;6.30;2.60;;;5.00;74.90;;;;;;5052650;28;20473;-53
2023/04/27 03:44:52;;;;;;;8.73;2.67;;;4.90;76.00;;;;;;5053874;28;20491;-54
2023/04/27 03:47:18;;;;;;;4.87;2.50;;;4.90;73.60;;;;;;5054576;28;20519;-53
2023/04/27 03:49:45;;;;;;;5.93;2.30;;;5.00;75.20;;;;;;5051585;28;20524;-53
2023/04/27 03:52:12;;;;;;;5.87;2.80;;;5.00;73.60;;;;;;5051526;28;20518;-53
2023/04/27 03:54:38;;;;;;;6.90;2.90;;;5.00;70.70;;;;;;5047711;28;20504;-53
2023/04/27 03:57:05;;;;;;;7.60;3.37;;;5.00;65.20;;;;;;5051858;28;20526;-53
2023/04/27 03:59:33;;;;;;;3.80;2.30;;;5.00;74.90;;;;;;5052810;28;20464;-53
2023/04/27 04:01:59;;;;;;;9.53;2.57;;;5.00;83.20;;;;;;5049696;28;21300;-53
2023/04/27 04:04:26;;;;;;;6.97;2.60;;;5.00;75.00;;;;;;5045665;28;20530;-54
2023/04/27 04:06:52;;;;;;;5.93;3.10;;;5.00;83.10;;;;;;5048815;28;22454;-53
2023/04/27 04:09:19;;;;;;;5.83;2.90;;;5.00;82.40;;;;;;5051734;28;20989;-52
2023/04/27 04:11:45;;;;;;;8.50;2.90;;;5.00;84.80;;;;;;5052054;28;20463;-52
2023/04/27 04:14:12;;;;;;;7.20;3.10;;;5.00;84.80;;;;;;5051565;28;20534;-54
2023/04/27 04:16:40;;;;;;;7.60;3.33;;;5.00;75.80;;;;;;5049079;28;20941;-53
2023/04/27 04:19:07;;;;;;;3.67;2.90;;;5.10;78.00;;;;;;5047360;28;20462;-52
2023/04/27 04:21:33;;;;;;;5.20;2.50;;;5.10;68.70;;;;;;5048413;28;20648;-52
2023/04/27 04:24:00;;;;;;;3.60;2.10;;;5.10;69.60;;;;;;5048426;28;20461;-53
2023/04/27 04:26:27;;;;;;;7.83;2.47;;;5.10;74.60;;;;;;5046639;28;20513;-52
2023/04/27 04:28:53;;;;;;;16.60;2.30;;;5.10;79.30;;;;;;5049858;28;20475;-52
2023/04/27 04:31:20;;;;;;;4.70;2.47;;;5.10;79.90;;;;;;5051533;28;20585;-52
2023/04/27 04:33:48;;;;;;;5.97;2.70;;;5.20;68.80;;;;;;5048388;28;20462;-52
2023/04/27 04:36:15;;;;;;;3.73;2.37;;;5.20;74.70;;;;;;5049383;28;20565;-52
2023/04/27 04:38:41;;;;;;;6.37;2.40;;;5.20;76.60;;;;;;5046670;28;20493;-53
2023/04/27 04:41:09;;;;;;;5.27;2.83;;;5.20;70.60;;;;;;5048188;28;20569;-53
2023/04/27 04:43:35;;;;;;;9.03;2.70;;;5.30;75.20;;;;;;5040872;28;20488;-52
2023/04/27 04:46:02;;;;;;;6.30;2.70;;;5.30;78.30;;;;;;5037862;28;20916;-53
2023/04/27 04:48:29;;;;;;;4.87;3.20;;;5.30;74.90;;;;;;5043011;28;20538;-54
2023/04/27 04:50:56;;;;;;;5.50;2.37;;;5.40;80.70;;;;;;5044560;28;20854;-53
2023/04/27 04:53:23;;;;;;;8.67;2.80;;;5.40;75.60;;;;;;5044577;28;20465;-53
2023/04/27 04:55:50;;;;;;;6.93;2.90;;;5.50;71.90;;;;;;5052638;28;20497;-57
2023/04/27 04:58:16;;;;;;;10.87;3.07;;;5.50;67.20;;;;;;5046667;28;20466;-57
2023/04/27 05:00:43;;;;;;;4.47;2.90;;;5.50;72.70;;;;;;5044186;28;20569;-55
2023/04/27 05:03:09;;;;;;;5.57;2.60;;;5.60;71.60;;;;;;5049015;28;20496;-56
2023/04/27 05:05:36;;;;;;;7.40;2.80;;;5.60;86.10;;;;;;5050146;28;20542;-55
2023/04/27 05:08:04;;;;;;;8.33;2.43;;;5.60;87.60;;;;;;5054166;28;20527;-56
2023/04/27 05:10:31;;;;;;;10.13;3.13;;;5.60;80.00;;;;;;5049938;28;20554;-57
2023/04/27 05:12:58;;;;;;;7.60;2.93;;;5.60;86.30;;;;;;5045322;28;20498;-56
2023/04/27 05:15:25;;;;;;;12.73;4.00;;;5.60;94.70;;;;;;5055583;28;20460;-56
2023/04/27 05:17:52;;;;;;;3.90;2.50;;;5.70;92.10;;;;;;5057265;28;20488;-56
2023/04/27 05:20:19;;;;;;;8.07;2.90;;;5.70;97.60;;;;;;5050165;28;20495;-57
2023/04/27 05:22:46;;;;;;;8.07;3.00;;;5.80;95.50;;;;;;5052196;28;20484;-57
2023/04/27 05:25:14;;;;;;;9.97;3.33;;;5.80;93.60;;;;;;5051937;28;20453;-57
2023/04/27 05:27:41;;;;;;;5.87;3.10;;;5.80;94.30;;;;;;5051798;28;20488;-57
2023/04/27 05:30:09;;;;;;;3.17;2.87;;;5.80;99.40;;;;;;5048249;28;20483;-57
2023/04/27 05:32:36;;;;;;;6.80;2.70;;;5.80;99.90;;;;;;5047255;28;21070;-57
2023/04/27 05:35:04;;;;;;;10.13;3.30;;;5.70;99.90;;;;;;5050139;28;20467;-57
2023/04/27 05:37:30;;;;;;;3.40;2.50;;;5.70;99.90;;;;;;5050141;28;20456;-56
2023/04/27 05:39:57;;;;;;;4.03;3.27;;;5.80;99.90;;;;;;5052053;28;20990;-56
2023/04/27 05:42:25;;;;;;;10.23;2.77;;;5.90;99.90;;;;;;5049769;28;21112;-56
2023/04/27 05:44:51;;;;;;;2.87;2.00;;;5.90;99.90;;;;;;5045813;28;20502;-58
2023/04/27 05:47:18;;;;;;;4.43;2.60;;;5.90;99.90;;;;;;5063348;28;20481;-58
2023/04/27 05:49:44;;;;;;;7.77;3.10;;;5.90;99.90;;;;;;5063369;28;20588;-57
2023/04/27 05:52:11;;;;;;;6.53;2.63;;;5.80;99.90;;;;;;5067843;28;20496;-56
2023/04/27 05:54:37;;;;;;;25.50;3.27;;;5.80;99.90;;;;;;5073688;28;20461;-56
2023/04/27 05:57:04;;;;;;;11.50;3.23;;;6.00;99.90;;;;;;5060153;28;20462;-56
2023/04/27 05:59:32;;;;;;;14.00;2.67;;;6.00;99.90;;;;;;5050973;28;20472;-56
2023/04/27 06:01:59;;;;;;;6.73;3.10;;;6.10;99.90;;;;;;5047603;28;21064;-56
2023/04/27 06:04:25;;;;;;;13.43;3.20;;;6.10;99.90;;;;;;5055944;28;20460;-56
2023/04/27 06:06:52;;;;;;;7.90;3.17;;;6.10;99.90;;;;;;5055336;28;20563;-56
2023/04/27 06:09:19;;;;;;;5.90;2.20;;;6.20;99.90;;;;;;5049605;28;20521;-56
2023/04/27 06:11:46;;;;;;;7.73;2.90;;;6.20;99.90;;;;;;5054957;28;20473;-56
2023/04/27 06:14:12;;;;;;;5.13;2.47;;;6.30;99.90;;;;;;5059157;28;20459;-56
2023/04/27 06:16:40;;;;;;;4.90;3.07;;;6.40;99.90;;;;;;5058923;28;20455;-56
2023/04/27 06:19:07;;;;;;;5.67;2.70;;;6.60;99.90;;;;;;5066999;28;20475;-56
2023/04/27 06:21:34;;;;;;;9.20;2.77;;;6.80;99.90;;;;;;5061451;28;20480;-57
2023/04/27 06:24:00;;;;;;;7.97;3.03;;;6.80;99.90;;;;;;5060417;28;20515;-55
2023/04/27 06:26:27;;;;;;;10.47;2.70;;;6.90;99.90;;;;;;5060005;28;20464;-56
2023/04/27 06:28:54;;;;;;;7.57;3.13;;;7.00;99.90;;;;;;5054921;28;20883;-55
2023/04/27 06:31:21;;;;;;;8.50;3.10;;;7.10;99.90;;;;;;5060573;28;21026;-56
2023/04/27 06:33:49;;;;;;;4.70;2.97;;;7.00;99.90;;;;;;5057643;28;20464;-57
2023/04/27 06:36:16;;;;;;;7.10;2.93;;;7.20;99.90;;;;;;5049646;28;20563;-56
2023/04/27 06:38:42;;;;;;;7.70;3.00;;;7.30;99.90;;;;;;5050016;28;22343;-56
2023/04/27 06:41:09;;;;;;;18.87;2.70;;;7.50;99.90;;;;;;5051774;28;20481;-56
2023/04/27 06:43:36;;;;;;;15.23;3.33;;;7.60;99.90;;;;;;5051568;28;20476;-55
2023/04/27 06:46:02;;;;;;;5.07;2.90;;;7.50;99.90;;;;;;5051678;28;20539;-56
2023/04/27 06:48:29;;;;;;;6.17;2.50;;;7.60;99.90;;;;;;5050944;28;20492;-56
2023/04/27 06:50:57;;;;;;;4.73;2.73;;;7.70;99.90;;;;;;5050825;28;20525;-55
2023/04/27 06:53:23;;;;;;;7.90;2.70;;;7.60;99.90;;;;;;5051371;28;20491;-56
2023/04/27 06:55:50;;;;;;;3.53;2.13;;;7.70;99.90;;;;;;5049228;28;20461;-56
2023/04/27 06:58:16;;;;;;;8.13;3.13;;;7.90;99.90;;;;;;5051960;28;20457;-55
2023/04/27 07:00:43;;;;;;;4.40;2.77;;;8.00;99.90;;;;;;5050686;28;20500;-55
2023/04/27 07:03:10;;;;;;;6.87;2.70;;;8.10;31.40;;;;;;5061627;28;20495;-56
2023/04/27 07:05:36;;;;;;;4.30;2.30;;;8.40;34.60;;;;;;5049645;28;20467;-56
2023/04/27 07:08:04;;;;;;;5.10;2.57;;;8.40;69.60;;;;;;5053261;28;20511;-55
2023/04/27 07:10:31;;;;;;;3.97;2.60;;;8.90;99.90;;;;;;5057760;28;20471;-56
2023/04/27 07:12:58;;;;;;;6.93;2.87;;;8.90;99.90;;;;;;5060210;28;20515;-56
2023/04/27 07:15:25;;;;;;;4.10;2.53;;;9.50;99.90;;;;;;5054083;28;21048;-56
2023/04/27 07:17:52;;;;;;;9.97;2.00;;;9.80;99.90;;;;;;5059865;28;20493;-56
2023/04/27 07:20:19;;;;;;;7.97;2.60;;;9.70;99.90;;;;;;5063382;28;20986;-55
2023/04/27 07:22:46;;;;;;;5.10;2.30;;;9.50;99.90;;;;;;5055208;28;20879;-57
2023/04/27 07:25:14;;;;;;;9.63;2.30;;;9.40;99.90;;;;;;5056305;28;20502;-56
2023/04/27 07:27:41;;;;;;;8.80;2.70;;;9.30;99.90;;;;;;5055609;28;20990;-56
2023/04/27 07:30:09;;;;;;;7.17;2.70;;;8.90;99.90;;;;;;5055440;28;20472;-55
2023/04/27 07:32:37;;;;;;;11.07;2.67;;;9.00;99.90;;;;;;5060825;28;20486;-57
2023/04/27 07:35:04;;;;;;;3.93;2.13;;;9.10;99.90;;;;;;5057078;28;20468;-56
2023/04/27 07:37:31;;;;;;;9.00;2.60;;;9.00;99.90;;;;;;5055596;28;20509;-56
2023/04/27 07:39:58;;;;;;;4.60;2.07;;;9.10;99.90;;;;;;5055189;28;20566;-56
2023/04/27 07:42:26;;;;;;;8.17;2.57;;;8.70;99.90;;;;;;5055003;28;20868;-57
2023/04/27 07:44:53;;;;;;;4.03;2.07;;;8.40;99.90;;;;;;5062662;28;20490;-56
2023/04/27 07:47:20;;;;;;;3.40;2.00;;;7.90;99.90;;;;;;5073817;28;20462;-57
2023/04/27 07:49:47;;;;;;;14.10;2.60;;;8.00;99.90;;;;;;5070711;28;20845;-56
2023/04/27 07:52:14;;;;;;;4.57;1.67;;;8.20;99.90;;;;;;5056967;28;20469;-56
2023/04/27 07:54:41;;;;;;;7.90;2.50;;;8.70;99.90;;;;;;5054449;28;20468;-55
2023/04/27 07:57:09;;;;;;;2.60;1.77;;;9.20;99.90;;;;;;5056423;28;20548;-55
2023/04/27 07:59:37;;;;;;;3.53;2.23;;;9.40;99.90;;;;;;5055670;28;20510;-56
2023/04/27 08:02:03;;;;;;;3.57;2.23;;;9.00;99.90;;;;;;5053623;28;20988;-56
2023/04/27 08:04:30;;;;;;;7.97;2.30;;;9.40;99.90;;;;;;5052730;28;20480;-56
2023/04/27 08:06:57;;;;;;;4.83;2.23;;;9.80;99.90;;;;;;5057740;28;20459;-56
2023/04/27 08:09:23;;;;;;;5.30;2.40;;;10.10;99.90;;;;;;5052247;28;20524;-55
2023/04/27 08:11:50;;;;;;;3.20;2.23;;;10.20;99.90;;;;;;5055004;28;20487;-57
2023/04/27 08:14:18;;;;;;;3.67;2.60;;;10.10;99.90;;;;;;5053486;28;20456;-55
2023/04/27 08:16:45;;;;;;;4.03;1.90;;;9.30;99.90;;;;;;5055768;28;20462;-56
2023/04/27 08:19:12;;;;;;;4.03;1.97;;;9.30;99.90;;;;;;5051181;28;20503;-57
2023/04/27 08:21:39;;;;;;;3.30;1.97;;;9.40;99.90;;;;;;5052928;28;20501;-57
2023/04/27 08:24:06;;;;;;;7.10;2.30;;;10.00;99.90;;;;;;5055241;28;20463;-56
2023/04/27 08:26:34;;;;;;;3.90;2.73;;;10.10;99.90;;;;;;5061092;28;21007;-56
2023/04/27 08:29:00;;;;;;;7.43;2.70;;;10.30;99.90;;;;;;5055538;28;20580;-55
2023/04/27 08:31:27;;;;;;;4.10;1.83;;;10.20;99.90;;;;;;5051976;28;20482;-57
2023/04/27 08:33:57;;;;;;;3.37;1.90;;;9.80;99.90;;;;;;5051994;28;20861;-59
2023/04/27 08:36:24;;;;;;;2.07;1.70;;;9.30;99.90;;;;;;5060306;28;20545;-56
2023/04/27 08:38:51;;;;;;;4.60;2.20;;;9.20;99.90;;;;;;5066880;28;20454;-56
2023/04/27 08:41:19;;;;;;;5.37;2.13;;;9.00;99.90;;;;;;5059478;28;20552;-56
2023/04/27 08:43:48;;;;;;;10.80;2.00;;;9.00;99.90;;;;;;5059628;28;20452;-56
2023/04/27 08:46:18;;;;;;;3.30;1.67;;;9.80;99.90;;;;;;5053911;28;20488;-56
2023/04/27 08:48:44;;;;;;;8.17;2.00;;;11.40;99.90;;;;;;5057941;28;20565;-56
2023/04/27 08:51:15;;;;;;;2.70;1.93;;;11.80;99.90;;;;;;5080797;22;20542;-55
2023/04/27 08:53:47;;;;;;;6.77;2.47;;;11.50;99.90;;;;;;5047718;28;20457;-53
2023/04/27 08:56:14;;;;;;;4.53;1.70;;;11.00;99.90;;;;;;5057260;28;20975;-54
2023/04/27 08:58:41;;;;;;;7.23;1.63;;;9.90;99.90;;;;;;5064203;28;20436;-55
2023/04/27 09:01:07;;;;;;;4.20;1.80;;;9.90;99.90;;;;;;5054496;28;20633;-54
2023/04/27 09:03:35;;;;;;;12.30;2.20;;;10.00;99.90;;;;;;5030317;28;20928;-55
2023/04/27 09:06:02;;;;;;;2.40;1.80;;;10.40;99.90;;;;;;5029664;28;20488;-55
2023/04/27 09:08:40;;;;;;;6.90;2.10;;;11.20;99.90;;;;;;5036128;28;20490;-54
2023/04/27 09:11:07;;;;;;;7.23;1.57;;;11.20;99.90;;;;;;5032368;28;20468;-53
2023/04/27 09:13:37;;;;;;;5.07;1.63;;;10.10;99.90;;;;;;5031184;28;20453;-55
2023/04/27 09:16:04;;;;;;;2.57;1.60;;;10.30;99.90;;;;;;5040536;28;20446;-54
2023/04/27 09:18:32;;;;;;;8.30;1.80;;;10.50;99.90;;;;;;5032648;28;20442;-56
2023/04/27 09:21:00;;;;;;;4.27;1.70;;;10.80;99.90;;;;;;5032519;28;20466;-54
2023/04/27 09:23:28;;;;;;;1.73;1.50;;;10.30;99.90;;;;;;5032363;28;20456;-56
2023/04/27 09:25:57;;;;;;;3.70;2.00;;;10.50;99.90;;;;;;5032160;28;20511;-53
2023/04/27 09:28:26;;;;;;;2.63;1.67;;;12.20;99.90;;;;;;5032127;28;20543;-53
2023/04/27 09:30:54;;;;;;;6.70;1.90;;;13.20;99.90;;;;;;5029759;28;20466;-54
2023/04/27 09:33:25;;;;;;;4.10;2.20;;;13.90;99.90;;;;;;5031939;28;20442;-55
2023/04/27 09:35:52;;;;;;;2.97;1.97;;;13.60;99.90;;;;;;5031997;28;20441;-55
2023/04/27 09:38:19;;;;;;;2.50;1.60;;;14.80;99.90;;;;;;5032132;28;20432;-56
2023/04/27 09:40:46;;;;;;;3.67;1.27;;;15.40;99.90;;;;;;5032155;28;20473;-56
2023/04/27 09:43:15;;;;;;;1.30;1.20;;;13.40;99.90;;;;;;5024278;28;20975;-55
2023/04/27 09:45:42;;;;;;;1.63;1.53;;;13.00;99.90;;;;;;5028840;28;20536;-53
2023/04/27 09:48:09;;;;;;;4.20;1.70;;;12.10;99.90;;;;;;5030428;28;20518;-54
2023/04/27 09:50:36;;;;;;;8.33;1.93;;;11.50;99.90;;;;;;5025083;28;20488;-53
2023/04/27 09:53:06;;;;;;;4.87;1.60;;;10.70;99.90;;;;;;5027027;28;20469;-55
2023/04/27 09:55:37;;;;;;;2.83;1.60;;;10.40;99.90;;;;;;5031040;28;20469;-52
2023/04/27 09:58:23;;;;;;;6.30;1.60;;;10.50;99.90;;;;;;5033729;28;20916;-55
2023/04/27 10:01:00;;;;;;;4.03;1.30;;;10.60;99.90;;;;;;5018772;28;20517;-53
2023/04/27 10:03:32;;;;;;;3.43;1.67;;;11.10;99.90;;;;;;5031338;28;20843;-52
2023/04/27 10:06:36;;;;;;;2.03;1.43;;;11.10;99.90;;;;;;5033004;28;20548;-56
2023/04/27 10:09:05;;;;;;;2.90;1.77;;;11.40;99.90;;;;;;5024234;28;20874;-54
2023/04/27 10:11:39;;;;;;;3.63;1.67;;;11.00;99.90;;;;;;5033863;28;20504;-53
2023/04/27 10:14:09;;;;;;;4.30;1.50;;;10.70;99.90;;;;;;5021392;28;20464;-53
2023/04/27 10:16:46;;;;;;;5.43;2.70;;;10.50;99.90;;;;;;5028487;28;20459;-53
2023/04/27 10:19:13;;;;;;;6.33;1.90;;;10.60;99.90;;;;;;5025958;28;20467;-55
2023/04/27 10:21:52;;;;;;;5.67;1.90;;;10.30;99.90;;;;;;5035522;28;20525;-54
2023/04/27 10:24:18;;;;;;;6.23;1.73;;;10.10;99.90;;;;;;5034523;28;20464;-54
2023/04/27 10:26:47;;;;;;;4.90;1.73;;;10.80;99.90;;;;;;5031698;28;20882;-54
2023/04/27 10:29:17;;;;;;;2.90;1.10;;;11.10;99.90;;;;;;5039381;28;20485;-53
2023/04/27 10:31:44;;;;;;;1.70;1.60;;;10.90;99.90;;;;;;5038372;28;20971;-53
2023/04/27 10:34:15;;;;;;;3.63;1.50;;;10.60;99.90;;;;;;5023048;28;20462;-54
2023/04/27 10:36:42;;;;;;;4.70;1.80;;;10.70;99.90;;;;;;5031108;28;20527;-54
2023/04/27 10:39:16;;;;;;;1.53;1.43;;;10.40;99.90;;;;;;5029778;28;20475;-52
2023/04/27 10:41:50;;;;;;;6.20;1.97;;;10.20;99.90;;;;;;5037108;28;20478;-53
2023/04/27 10:44:20;;;;;;;5.10;2.30;;;10.30;99.90;;;;;;5031062;28;20992;-54
2023/04/27 10:46:53;;;;;;;1.63;1.50;;;10.20;99.90;;;;;;5036670;28;20458;-54
2023/04/27 10:49:20;;;;;;;3.00;1.53;;;10.20;99.90;;;;;;5024326;28;20512;-54
2023/04/27 10:51:49;;;;;;;3.10;1.57;;;10.30;99.90;;;;;;5031933;28;20552;-55
2023/04/27 10:54:16;;;;;;;1.73;1.63;;;10.40;99.90;;;;;;5040511;28;20445;-54
2023/04/27 10:56:42;;;;;;;11.10;2.37;;;10.60;99.90;;;;;;5048040;28;20943;-54
2023/04/27 10:59:09;;;;;;;3.37;1.63;;;10.90;99.90;;;;;;5045340;28;20994;-54
2023/04/27 11:01:37;;;;;;;3.80;1.50;;;10.80;99.90;;;;;;5040790;28;20486;-55
2023/04/27 11:04:04;;;;;;;2.30;1.50;;;10.80;99.90;;;;;;5036907;28;20505;-55
2023/04/27 11:06:32;;;;;;;1.90;1.53;;;10.80;99.90;;;;;;5037590;28;20464;-53
2023/04/27 11:08:59;;;;;;;2.30;1.80;;;10.90;99.90;;;;;;5039235;28;20852;-54
2023/04/27 11:11:26;;;;;;;3.27;1.20;;;11.30;99.90;;;;;;5034712;28;20490;-55
2023/04/27 11:13:54;;;;;;;3.13;1.20;;;11.30;99.90;;;;;;5045841;28;20522;-54
2023/04/27 11:16:21;;;;;;;1.17;1.07;;;11.30;99.90;;;;;;5042154;28;20884;-53
2023/04/27 11:18:49;;;;;;;4.07;1.20;;;11.60;99.90;;;;;;5042649;28;20452;-55
2023/04/27 11:21:17;;;;;;;4.10;1.83;;;12.10;99.90;;;;;;5039095;28;20476;-54
2023/04/27 11:23:44;;;;;;;1.70;1.33;;;12.70;99.90;;;;;;5034311;28;20465;-54
2023/04/27 11:26:13;;;;;;;3.77;1.37;;;12.60;99.90;;;;;;5040682;28;20485;-55
2023/04/27 11:28:40;;;;;;;1.73;1.60;;;12.80;99.90;;;;;;5036830;28;21293;-54
2023/04/27 11:31:07;;;;;;;5.40;1.80;;;12.90;99.90;;;;;;5042287;28;20481;-54
2023/04/27 11:33:34;;;;;;;3.20;1.40;;;12.50;99.90;;;;;;5032926;28;21109;-53
2023/04/27 11:36:02;;;;;;;4.73;1.50;;;11.90;99.90;;;;;;5031328;28;20472;-54
2023/04/27 11:38:33;;;;;;;2.17;1.40;;;11.60;99.90;;;;;;5034996;28;20632;-53
2023/04/27 11:41:01;;;;;;;5.87;1.40;;;11.30;99.90;;;;;;5042155;28;21068;-55
2023/04/27 11:43:28;;;;;;;2.07;1.70;;;11.10;99.90;;;;;;5042886;28;20536;-54
2023/04/27 11:45:55;;;;;;;4.77;2.20;;;11.10;99.90;;;;;;5044791;28;20477;-55
2023/04/27 11:48:23;;;;;;;3.00;1.40;;;11.10;99.90;;;;;;5040635;28;20539;-54
2023/04/27 11:50:50;;;;;;;5.57;1.90;;;11.60;99.90;;;;;;5035768;28;20492;-57
2023/04/27 11:53:29;;;;;;;3.83;1.60;;;11.70;99.90;;;;;;5035028;28;20462;-55
2023/04/27 11:55:57;;;;;;;3.77;1.67;;;11.40;99.90;;;;;;5030705;28;20914;-55
2023/04/27 11:58:25;;;;;;;9.70;1.53;;;11.60;99.90;;;;;;5031986;28;20501;-54
2023/04/27 12:00:51;;;;;;;2.87;1.83;;;11.80;99.90;;;;;;5043384;28;21006;-55
2023/04/27 12:03:18;;;;;;;7.93;1.50;;;11.80;99.90;;;;;;5042403;28;20443;-56
2023/04/27 12:05:48;;;;;;;1.73;1.53;;;11.30;99.90;;;;;;5029404;28;20806;-54
2023/04/27 12:08:15;;;;;;;1.60;1.50;;;11.10;99.90;;;;;;5033865;28;20454;-55
2023/04/27 12:10:44;;;;;;;3.83;1.83;;;10.90;99.90;;;;;;5048149;28;20491;-54
2023/04/27 12:13:11;;;;;;;8.43;1.70;;;11.00;99.90;;;;;;5034025;28;20548;-55
2023/04/27 12:15:37;;;;;;;2.20;1.20;;;11.10;99.90;;;;;;5042923;28;20457;-54
2023/04/27 12:18:04;;;;;;;2.83;1.57;;;11.20;99.90;;;;;;5026335;28;20470;-54
2023/04/27 12:20:31;;;;;;;3.43;1.40;;;11.20;99.90;;;;;;5028982;28;20568;-54
2023/04/27 12:22:58;;;;;;;3.63;1.60;;;11.10;99.90;;;;;;5045112;28;20471;-54
2023/04/27 12:25:25;;;;;;;5.60;1.70;;;11.00;99.90;;;;;;5028159;28;20462;-54
2023/04/27 12:27:53;;;;;;;3.37;2.20;;;11.30;99.90;;;;;;5031836;28;20462;-56
2023/04/27 12:30:20;;;;;;;4.87;1.73;;;11.50;99.90;;;;;;5032101;28;20591;-54
2023/04/27 12:32:46;;;;;;;3.30;1.50;;;11.50;99.90;;;;;;5030855;28;20472;-54
2023/04/27 12:35:13;;;;;;;4.10;1.50;;;11.20;99.90;;;;;;5030448;28;20572;-55
2023/04/27 12:37:41;;;;;;;4.20;1.60;;;11.10;99.90;;;;;;5041011;28;20452;-55
2023/04/27 12:40:09;;;;;;;3.67;1.60;;;11.40;99.90;;;;;;5028935;28;20466;-55
2023/04/27 12:42:35;;;;;;;3.87;1.37;;;11.40;99.90;;;;;;5025761;28;20466;-55
2023/04/27 12:45:04;;;;;;;1.77;1.53;;;11.20;99.90;;;;;;5035361;28;20461;-55
2023/04/27 12:47:33;;;;;;;4.30;1.40;;;11.50;99.90;;;;;;5034376;28;20956;-55
2023/04/27 12:50:00;;;;;;;2.20;1.30;;;11.70;99.90;;;;;;5026843;28;20492;-53
2023/04/27 12:52:27;;;;;;;4.60;1.57;;;11.50;99.90;;;;;;5025497;28;20456;-54
2023/04/27 12:54:58;;;;;;;3.03;1.30;;;11.80;99.90;;;;;;5033304;28;20476;-54